This is the latest recevied weather packets stored in our database for station/object E22ZMG-2. If no packets are shown the sender has not sent any weather packets the latest 10 day(s).
| Time | Temp. | Humidity | Pressure | Rain* | Wind** | Luminosity | Snow |
|---|---|---|---|---|---|---|---|
| 1777075744 | 27.22° C | 73% | 928 hPa | - | - | 0 W/m² | - |
| 1777075120 | 27.22° C | 73% | 928 hPa | - | - | 0 W/m² | - |
| 1777074496 | 27.22° C | 73% | 928 hPa | - | - | 0 W/m² | - |
| 1777073871 | 27.22° C | 73% | 927 hPa | - | - | 0 W/m² | - |
| 1777073247 | 27.22° C | 73% | 927 hPa | - | - | 0 W/m² | - |
| 1777072623 | 27.22° C | 72% | 927 hPa | - | - | 0 W/m² | - |
| 1777071999 | 26.67° C | 74% | 927 hPa | - | - | 0 W/m² | - |
| 1777071375 | 26.67° C | 73% | 927 hPa | - | - | 0 W/m² | - |
| 1777070751 | 25.56° C | 76% | 927 hPa | - | - | 0 W/m² | - |
| 1777058829 | 28.89° C | 52% | 925 hPa | - | - | 0 W/m² | - |
| 1777058205 | 28.33° C | 58% | 925 hPa | - | - | 0 W/m² | - |
| 1777057581 | 30.56° C | 51% | 925 hPa | - | - | 0 W/m² | - |
| 1777056956 | 30.56° C | 49% | 925 hPa | - | - | 0 W/m² | - |
| 1777056332 | 30.56° C | 50% | 925 hPa | - | - | 0 W/m² | - |
| 1777055708 | 30° C | 51% | 925 hPa | - | - | 0 W/m² | - |
| 1777055084 | 30.56° C | 49% | 925 hPa | - | - | 0 W/m² | - |
| 1777054460 | 31.11° C | 47% | 925 hPa | - | - | 0 W/m² | - |
| 1777053836 | 31.11° C | 47% | 925 hPa | - | - | 0 W/m² | - |
| 1777053212 | 31.11° C | 46% | 925 hPa | - | - | 0 W/m² | - |
| 1777052588 | 31.11° C | 45% | 925 hPa | - | - | 0 W/m² | - |
| 1777051964 | 30.56° C | 45% | 925 hPa | - | - | 0 W/m² | - |
| 1777051340 | 31.67° C | 44% | 925 hPa | - | - | 0 W/m² | - |
| 1777050716 | 31.67° C | 44% | 925 hPa | - | - | 0 W/m² | - |
| 1777050092 | 31.67° C | 45% | 925 hPa | - | - | 0 W/m² | - |
| 1777049468 | 31.67° C | 44% | 925 hPa | - | - | 0 W/m² | - |
* Rain since midnight (hover to see other rain measurements)
** Current wind speed in m/s (hover to see current wind gust speed)